sensor_id;sensor_type;location;lat;lon;timestamp;P1;durP1;ratioP1;P2;durP2;ratioP2
13457;SDS011;6801;53.018;11.560;2023-03-23T00:01:27;2.90;;;0.80;;
13457;SDS011;6801;53.018;11.560;2023-03-23T00:03:56;2.42;;;0.90;;
13457;SDS011;6801;53.018;11.560;2023-03-23T00:06:25;3.40;;;1.30;;
13457;SDS011;6801;53.018;11.560;2023-03-23T00:08:58;3.65;;;1.15;;
13457;SDS011;6801;53.018;11.560;2023-03-23T00:11:27;2.55;;;0.90;;
13457;SDS011;6801;53.018;11.560;2023-03-23T00:13:58;2.67;;;0.85;;
13457;SDS011;6801;53.018;11.560;2023-03-23T00:16:27;6.70;;;1.40;;
13457;SDS011;6801;53.018;11.560;2023-03-23T00:18:57;2.72;;;0.80;;
13457;SDS011;6801;53.018;11.560;2023-03-23T00:21:26;4.68;;;1.13;;
13457;SDS011;6801;53.018;11.560;2023-03-23T00:24:00;2.78;;;0.80;;
13457;SDS011;6801;53.018;11.560;2023-03-23T00:26:28;4.50;;;1.02;;
13457;SDS011;6801;53.018;11.560;2023-03-23T00:29:00;6.22;;;0.95;;
13457;SDS011;6801;53.018;11.560;2023-03-23T00:31:28;2.63;;;0.85;;
13457;SDS011;6801;53.018;11.560;2023-03-23T00:33:58;1.92;;;0.90;;
13457;SDS011;6801;53.018;11.560;2023-03-23T00:36:26;3.25;;;0.90;;
13457;SDS011;6801;53.018;11.560;2023-03-23T00:38:53;1.48;;;0.80;;
13457;SDS011;6801;53.018;11.560;2023-03-23T00:41:23;4.03;;;0.80;;
13457;SDS011;6801;53.018;11.560;2023-03-23T00:43:52;2.15;;;0.90;;
13457;SDS011;6801;53.018;11.560;2023-03-23T00:46:20;6.60;;;1.30;;
13457;SDS011;6801;53.018;11.560;2023-03-23T00:48:47;1.95;;;0.90;;
13457;SDS011;6801;53.018;11.560;2023-03-23T00:51:16;3.10;;;1.17;;
13457;SDS011;6801;53.018;11.560;2023-03-23T00:53:43;2.63;;;0.60;;
13457;SDS011;6801;53.018;11.560;2023-03-23T00:56:11;5.03;;;0.73;;
13457;SDS011;6801;53.018;11.560;2023-03-23T00:58:38;2.15;;;0.75;;
13457;SDS011;6801;53.018;11.560;2023-03-23T01:01:05;3.58;;;0.82;;
13457;SDS011;6801;53.018;11.560;2023-03-23T01:03:34;2.45;;;0.90;;
13457;SDS011;6801;53.018;11.560;2023-03-23T01:06:05;3.25;;;0.82;;
13457;SDS011;6801;53.018;11.560;2023-03-23T01:08:37;2.13;;;0.68;;
13457;SDS011;6801;53.018;11.560;2023-03-23T01:11:10;2.42;;;0.70;;
13457;SDS011;6801;53.018;11.560;2023-03-23T01:13:38;1.88;;;0.80;;
13457;SDS011;6801;53.018;11.560;2023-03-23T01:16:06;2.60;;;0.60;;
13457;SDS011;6801;53.018;11.560;2023-03-23T01:18:34;2.28;;;0.70;;
13457;SDS011;6801;53.018;11.560;2023-03-23T01:21:05;2.13;;;0.70;;
13457;SDS011;6801;53.018;11.560;2023-03-23T01:23:33;3.25;;;0.90;;
13457;SDS011;6801;53.018;11.560;2023-03-23T01:26:04;2.35;;;0.70;;
13457;SDS011;6801;53.018;11.560;2023-03-23T01:28:32;1.58;;;0.70;;
13457;SDS011;6801;53.018;11.560;2023-03-23T01:31:00;4.00;;;0.98;;
13457;SDS011;6801;53.018;11.560;2023-03-23T01:33:28;3.75;;;1.13;;
13457;SDS011;6801;53.018;11.560;2023-03-23T01:35:57;2.78;;;1.23;;
13457;SDS011;6801;53.018;11.560;2023-03-23T01:38:24;5.30;;;1.20;;
13457;SDS011;6801;53.018;11.560;2023-03-23T01:40:51;0.88;;;0.70;;
13457;SDS011;6801;53.018;11.560;2023-03-23T01:43:18;5.82;;;0.90;;
13457;SDS011;6801;53.018;11.560;2023-03-23T01:45:45;4.60;;;1.00;;
13457;SDS011;6801;53.018;11.560;2023-03-23T01:48:13;3.05;;;0.70;;
13457;SDS011;6801;53.018;11.560;2023-03-23T01:50:46;3.03;;;1.40;;
13457;SDS011;6801;53.018;11.560;2023-03-23T01:53:19;1.42;;;0.70;;
13457;SDS011;6801;53.018;11.560;2023-03-23T01:55:49;3.13;;;1.13;;
13457;SDS011;6801;53.018;11.560;2023-03-23T01:58:19;5.55;;;1.10;;
13457;SDS011;6801;53.018;11.560;2023-03-23T02:00:53;3.63;;;1.10;;
13457;SDS011;6801;53.018;11.560;2023-03-23T02:03:22;4.82;;;1.83;;
13457;SDS011;6801;53.018;11.560;2023-03-23T02:05:50;3.85;;;1.20;;
13457;SDS011;6801;53.018;11.560;2023-03-23T02:08:32;3.13;;;1.27;;
13457;SDS011;6801;53.018;11.560;2023-03-23T02:11:01;2.03;;;1.10;;
13457;SDS011;6801;53.018;11.560;2023-03-23T02:13:34;4.75;;;1.45;;
13457;SDS011;6801;53.018;11.560;2023-03-23T02:16:03;2.75;;;1.02;;
13457;SDS011;6801;53.018;11.560;2023-03-23T02:18:37;2.08;;;1.20;;
13457;SDS011;6801;53.018;11.560;2023-03-23T02:24:38;3.10;;;1.20;;
13457;SDS011;6801;53.018;11.560;2023-03-23T02:27:34;3.55;;;0.95;;
13457;SDS011;6801;53.018;11.560;2023-03-23T02:30:32;5.28;;;1.58;;
13457;SDS011;6801;53.018;11.560;2023-03-23T02:33:21;2.95;;;1.20;;
13457;SDS011;6801;53.018;11.560;2023-03-23T02:36:02;3.97;;;1.38;;
13457;SDS011;6801;53.018;11.560;2023-03-23T02:38:37;2.30;;;1.10;;
13457;SDS011;6801;53.018;11.560;2023-03-23T02:41:09;3.17;;;1.35;;
13457;SDS011;6801;53.018;11.560;2023-03-23T02:43:39;3.53;;;1.35;;
13457;SDS011;6801;53.018;11.560;2023-03-23T02:46:09;3.65;;;1.13;;
13457;SDS011;6801;53.018;11.560;2023-03-23T02:48:38;4.25;;;1.38;;
13457;SDS011;6801;53.018;11.560;2023-03-23T02:51:08;3.83;;;1.20;;
13457;SDS011;6801;53.018;11.560;2023-03-23T02:53:39;3.20;;;1.30;;
13457;SDS011;6801;53.018;11.560;2023-03-23T02:56:09;5.35;;;1.42;;
13457;SDS011;6801;53.018;11.560;2023-03-23T02:58:38;4.00;;;1.30;;
13457;SDS011;6801;53.018;11.560;2023-03-23T03:01:14;3.83;;;1.20;;
13457;SDS011;6801;53.018;11.560;2023-03-23T03:04:00;3.75;;;1.30;;
13457;SDS011;6801;53.018;11.560;2023-03-23T03:06:34;4.25;;;1.27;;
13457;SDS011;6801;53.018;11.560;2023-03-23T03:09:10;2.75;;;1.30;;
13457;SDS011;6801;53.018;11.560;2023-03-23T03:11:46;3.67;;;1.48;;
13457;SDS011;6801;53.018;11.560;2023-03-23T03:14:18;6.10;;;1.65;;
13457;SDS011;6801;53.018;11.560;2023-03-23T03:16:49;3.25;;;1.40;;
13457;SDS011;6801;53.018;11.560;2023-03-23T03:19:24;5.10;;;1.30;;
13457;SDS011;6801;53.018;11.560;2023-03-23T03:21:54;3.05;;;1.35;;
13457;SDS011;6801;53.018;11.560;2023-03-23T03:24:30;3.00;;;1.27;;
13457;SDS011;6801;53.018;11.560;2023-03-23T03:26:59;5.93;;;1.50;;
13457;SDS011;6801;53.018;11.560;2023-03-23T03:29:40;2.97;;;1.27;;
13457;SDS011;6801;53.018;11.560;2023-03-23T03:32:08;4.05;;;1.40;;
13457;SDS011;6801;53.018;11.560;2023-03-23T03:34:39;4.35;;;1.77;;
13457;SDS011;6801;53.018;11.560;2023-03-23T03:37:07;3.13;;;1.30;;
13457;SDS011;6801;53.018;11.560;2023-03-23T03:39:34;3.00;;;1.35;;
13457;SDS011;6801;53.018;11.560;2023-03-23T03:42:03;4.57;;;1.60;;
13457;SDS011;6801;53.018;11.560;2023-03-23T03:44:30;4.57;;;1.65;;
13457;SDS011;6801;53.018;11.560;2023-03-23T03:46:58;3.10;;;1.45;;
13457;SDS011;6801;53.018;11.560;2023-03-23T03:49:25;4.80;;;1.80;;
13457;SDS011;6801;53.018;11.560;2023-03-23T03:51:55;4.70;;;2.15;;
13457;SDS011;6801;53.018;11.560;2023-03-23T03:54:26;5.25;;;1.50;;
13457;SDS011;6801;53.018;11.560;2023-03-23T03:56:53;4.55;;;1.75;;
13457;SDS011;6801;53.018;11.560;2023-03-23T03:59:34;3.60;;;1.52;;
13457;SDS011;6801;53.018;11.560;2023-03-23T04:02:24;3.47;;;1.58;;
13457;SDS011;6801;53.018;11.560;2023-03-23T04:04:53;5.25;;;1.80;;
13457;SDS011;6801;53.018;11.560;2023-03-23T04:07:21;3.58;;;1.58;;
13457;SDS011;6801;53.018;11.560;2023-03-23T04:09:51;3.55;;;1.70;;
13457;SDS011;6801;53.018;11.560;2023-03-23T04:12:19;5.43;;;2.25;;
13457;SDS011;6801;53.018;11.560;2023-03-23T04:14:55;4.05;;;1.92;;
13457;SDS011;6801;53.018;11.560;2023-03-23T04:17:28;6.15;;;2.45;;
13457;SDS011;6801;53.018;11.560;2023-03-23T04:19:56;5.95;;;2.60;;
13457;SDS011;6801;53.018;11.560;2023-03-23T04:22:26;3.72;;;1.77;;
13457;SDS011;6801;53.018;11.560;2023-03-23T04:24:58;5.10;;;1.90;;
13457;SDS011;6801;53.018;11.560;2023-03-23T04:27:31;4.80;;;2.00;;
13457;SDS011;6801;53.018;11.560;2023-03-23T04:30:01;3.28;;;1.50;;
13457;SDS011;6801;53.018;11.560;2023-03-23T04:32:43;6.80;;;2.03;;
13457;SDS011;6801;53.018;11.560;2023-03-23T04:35:13;3.72;;;1.73;;
13457;SDS011;6801;53.018;11.560;2023-03-23T04:37:48;3.53;;;1.85;;
13457;SDS011;6801;53.018;11.560;2023-03-23T04:40:17;4.88;;;2.10;;
13457;SDS011;6801;53.018;11.560;2023-03-23T04:42:54;5.07;;;2.28;;
13457;SDS011;6801;53.018;11.560;2023-03-23T04:45:45;3.95;;;2.10;;
13457;SDS011;6801;53.018;11.560;2023-03-23T04:48:13;4.57;;;1.85;;
13457;SDS011;6801;53.018;11.560;2023-03-23T04:50:56;4.13;;;1.63;;
13457;SDS011;6801;53.018;11.560;2023-03-23T04:53:29;6.18;;;1.85;;
13457;SDS011;6801;53.018;11.560;2023-03-23T04:55:57;6.22;;;2.30;;
13457;SDS011;6801;53.018;11.560;2023-03-23T04:58:27;3.95;;;1.88;;
13457;SDS011;6801;53.018;11.560;2023-03-23T05:01:19;3.70;;;2.30;;
13457;SDS011;6801;53.018;11.560;2023-03-23T05:04:09;3.75;;;1.98;;
13457;SDS011;6801;53.018;11.560;2023-03-23T05:06:38;5.25;;;2.08;;
13457;SDS011;6801;53.018;11.560;2023-03-23T05:09:14;5.85;;;2.03;;
13457;SDS011;6801;53.018;11.560;2023-03-23T05:11:41;4.80;;;2.08;;
13457;SDS011;6801;53.018;11.560;2023-03-23T05:14:09;3.20;;;2.00;;
13457;SDS011;6801;53.018;11.560;2023-03-23T05:16:37;5.32;;;1.77;;
13457;SDS011;6801;53.018;11.560;2023-03-23T05:19:06;7.22;;;1.88;;
13457;SDS011;6801;53.018;11.560;2023-03-23T05:21:34;6.50;;;2.00;;
13457;SDS011;6801;53.018;11.560;2023-03-23T05:24:03;4.43;;;2.25;;
13457;SDS011;6801;53.018;11.560;2023-03-23T05:26:32;5.55;;;2.00;;
13457;SDS011;6801;53.018;11.560;2023-03-23T05:29:06;6.22;;;1.65;;
13457;SDS011;6801;53.018;11.560;2023-03-23T05:31:40;4.00;;;1.90;;
13457;SDS011;6801;53.018;11.560;2023-03-23T05:34:07;3.33;;;1.80;;
13457;SDS011;6801;53.018;11.560;2023-03-23T05:36:45;3.25;;;1.35;;
13457;SDS011;6801;53.018;11.560;2023-03-23T05:39:33;3.47;;;1.60;;
13457;SDS011;6801;53.018;11.560;2023-03-23T05:42:21;3.90;;;1.70;;
13457;SDS011;6801;53.018;11.560;2023-03-23T05:45:00;2.63;;;1.50;;
13457;SDS011;6801;53.018;11.560;2023-03-23T05:47:27;4.38;;;2.03;;
13457;SDS011;6801;53.018;11.560;2023-03-23T05:50:00;6.93;;;2.58;;
13457;SDS011;6801;53.018;11.560;2023-03-23T05:52:29;3.05;;;1.63;;
13457;SDS011;6801;53.018;11.560;2023-03-23T05:54:58;3.10;;;1.60;;
13457;SDS011;6801;53.018;11.560;2023-03-23T05:57:26;5.72;;;1.92;;
13457;SDS011;6801;53.018;11.560;2023-03-23T06:00:01;5.07;;;1.85;;
13457;SDS011;6801;53.018;11.560;2023-03-23T06:02:38;3.05;;;1.60;;
13457;SDS011;6801;53.018;11.560;2023-03-23T06:05:12;5.18;;;2.20;;
13457;SDS011;6801;53.018;11.560;2023-03-23T06:07:43;4.13;;;1.45;;
13457;SDS011;6801;53.018;11.560;2023-03-23T06:10:10;4.60;;;1.83;;
13457;SDS011;6801;53.018;11.560;2023-03-23T06:12:39;3.10;;;1.63;;
13457;SDS011;6801;53.018;11.560;2023-03-23T06:15:07;6.22;;;1.98;;
13457;SDS011;6801;53.018;11.560;2023-03-23T06:17:59;3.33;;;1.67;;
13457;SDS011;6801;53.018;11.560;2023-03-23T06:20:41;7.30;;;1.85;;
13457;SDS011;6801;53.018;11.560;2023-03-23T06:23:28;6.53;;;2.17;;
13457;SDS011;6801;53.018;11.560;2023-03-23T06:25:56;6.15;;;2.28;;
13457;SDS011;6801;53.018;11.560;2023-03-23T06:28:27;3.95;;;1.75;;
13457;SDS011;6801;53.018;11.560;2023-03-23T06:30:54;4.15;;;1.90;;
13457;SDS011;6801;53.018;11.560;2023-03-23T06:33:24;7.68;;;2.17;;
13457;SDS011;6801;53.018;11.560;2023-03-23T06:36:10;3.67;;;1.90;;
13457;SDS011;6801;53.018;11.560;2023-03-23T06:38:48;3.58;;;1.80;;
13457;SDS011;6801;53.018;11.560;2023-03-23T06:41:21;5.93;;;1.83;;
13457;SDS011;6801;53.018;11.560;2023-03-23T06:43:52;6.85;;;2.17;;
13457;SDS011;6801;53.018;11.560;2023-03-23T06:46:24;3.85;;;1.60;;
13457;SDS011;6801;53.018;11.560;2023-03-23T06:48:51;5.60;;;2.00;;
13457;SDS011;6801;53.018;11.560;2023-03-23T06:51:25;4.35;;;1.50;;
13457;SDS011;6801;53.018;11.560;2023-03-23T06:53:54;5.00;;;2.28;;
13457;SDS011;6801;53.018;11.560;2023-03-23T06:56:23;3.13;;;1.42;;
13457;SDS011;6801;53.018;11.560;2023-03-23T06:58:51;5.80;;;2.13;;
13457;SDS011;6801;53.018;11.560;2023-03-23T07:01:19;4.10;;;1.83;;
13457;SDS011;6801;53.018;11.560;2023-03-23T07:03:54;3.15;;;1.85;;
13457;SDS011;6801;53.018;11.560;2023-03-23T07:06:33;3.33;;;1.65;;
13457;SDS011;6801;53.018;11.560;2023-03-23T07:09:00;3.40;;;1.55;;
13457;SDS011;6801;53.018;11.560;2023-03-23T07:11:28;2.83;;;1.40;;
13457;SDS011;6801;53.018;11.560;2023-03-23T07:14:01;4.30;;;1.40;;
13457;SDS011;6801;53.018;11.560;2023-03-23T07:16:29;3.72;;;1.50;;
13457;SDS011;6801;53.018;11.560;2023-03-23T07:18:57;4.30;;;1.77;;
13457;SDS011;6801;53.018;11.560;2023-03-23T07:21:24;3.50;;;1.45;;
13457;SDS011;6801;53.018;11.560;2023-03-23T07:23:51;2.70;;;1.23;;
13457;SDS011;6801;53.018;11.560;2023-03-23T07:26:31;3.85;;;1.33;;
13457;SDS011;6801;53.018;11.560;2023-03-23T07:28:58;4.38;;;1.27;;
13457;SDS011;6801;53.018;11.560;2023-03-23T07:31:36;3.28;;;1.40;;
13457;SDS011;6801;53.018;11.560;2023-03-23T07:34:03;4.07;;;1.15;;
13457;SDS011;6801;53.018;11.560;2023-03-23T07:36:41;1.77;;;0.90;;
13457;SDS011;6801;53.018;11.560;2023-03-23T07:39:09;3.38;;;1.27;;
13457;SDS011;6801;53.018;11.560;2023-03-23T07:41:37;4.55;;;1.17;;
13457;SDS011;6801;53.018;11.560;2023-03-23T07:44:14;5.43;;;1.10;;
13457;SDS011;6801;53.018;11.560;2023-03-23T07:46:44;3.95;;;1.00;;
13457;SDS011;6801;53.018;11.560;2023-03-23T07:49:14;3.08;;;1.15;;
13457;SDS011;6801;53.018;11.560;2023-03-23T07:51:46;2.55;;;0.95;;
13457;SDS011;6801;53.018;11.560;2023-03-23T07:54:14;6.45;;;1.42;;
13457;SDS011;6801;53.018;11.560;2023-03-23T07:57:12;2.50;;;1.10;;
13457;SDS011;6801;53.018;11.560;2023-03-23T07:59:45;3.97;;;1.35;;
13457;SDS011;6801;53.018;11.560;2023-03-23T08:02:14;4.78;;;1.23;;
13457;SDS011;6801;53.018;11.560;2023-03-23T08:04:41;3.83;;;1.48;;
13457;SDS011;6801;53.018;11.560;2023-03-23T08:07:28;2.45;;;0.93;;
13457;SDS011;6801;53.018;11.560;2023-03-23T08:10:05;2.90;;;1.23;;
13457;SDS011;6801;53.018;11.560;2023-03-23T08:12:55;1.92;;;0.55;;
13457;SDS011;6801;53.018;11.560;2023-03-23T08:15:43;1.13;;;0.82;;
13457;SDS011;6801;53.018;11.560;2023-03-23T08:18:30;2.42;;;1.10;;
13457;SDS011;6801;53.018;11.560;2023-03-23T08:21:19;2.03;;;0.90;;
13457;SDS011;6801;53.018;11.560;2023-03-23T08:24:06;2.15;;;0.70;;
13457;SDS011;6801;53.018;11.560;2023-03-23T08:26:53;2.17;;;0.90;;
13457;SDS011;6801;53.018;11.560;2023-03-23T08:29:20;5.10;;;0.80;;
13457;SDS011;6801;53.018;11.560;2023-03-23T08:32:04;1.35;;;0.70;;
13457;SDS011;6801;53.018;11.560;2023-03-23T08:34:53;5.25;;;0.90;;
13457;SDS011;6801;53.018;11.560;2023-03-23T08:37:46;2.08;;;0.70;;
13457;SDS011;6801;53.018;11.560;2023-03-23T08:40:35;2.40;;;1.20;;
13457;SDS011;6801;53.018;11.560;2023-03-23T08:43:34;2.65;;;1.00;;
13457;SDS011;6801;53.018;11.560;2023-03-23T08:46:24;1.70;;;0.73;;
13457;SDS011;6801;53.018;11.560;2023-03-23T08:49:06;1.63;;;0.70;;
13457;SDS011;6801;53.018;11.560;2023-03-23T08:51:55;2.33;;;1.10;;
13457;SDS011;6801;53.018;11.560;2023-03-23T08:54:30;2.33;;;1.00;;
13457;SDS011;6801;53.018;11.560;2023-03-23T08:56:58;2.53;;;1.00;;
13457;SDS011;6801;53.018;11.560;2023-03-23T08:59:52;1.95;;;0.95;;
13457;SDS011;6801;53.018;11.560;2023-03-23T09:03:00;1.90;;;0.85;;
13457;SDS011;6801;53.018;11.560;2023-03-23T09:05:45;2.15;;;1.02;;
13457;SDS011;6801;53.018;11.560;2023-03-23T09:08:23;1.98;;;1.10;;
13457;SDS011;6801;53.018;11.560;2023-03-23T09:10:51;3.63;;;0.90;;
13457;SDS011;6801;53.018;11.560;2023-03-23T09:13:18;1.13;;;0.70;;
13457;SDS011;6801;53.018;11.560;2023-03-23T09:15:45;1.92;;;0.80;;
13457;SDS011;6801;53.018;11.560;2023-03-23T09:18:12;2.38;;;0.90;;
13457;SDS011;6801;53.018;11.560;2023-03-23T09:20:39;3.78;;;1.33;;
13457;SDS011;6801;53.018;11.560;2023-03-23T09:23:07;1.35;;;0.88;;
13457;SDS011;6801;53.018;11.560;2023-03-23T09:25:35;2.33;;;0.80;;
13457;SDS011;6801;53.018;11.560;2023-03-23T09:28:03;1.10;;;0.60;;
13457;SDS011;6801;53.018;11.560;2023-03-23T09:30:30;2.55;;;0.73;;
13457;SDS011;6801;53.018;11.560;2023-03-23T09:33:01;1.52;;;0.70;;
13457;SDS011;6801;53.018;11.560;2023-03-23T09:35:28;3.58;;;1.10;;
13457;SDS011;6801;53.018;11.560;2023-03-23T09:37:56;5.00;;;1.00;;
13457;SDS011;6801;53.018;11.560;2023-03-23T09:40:26;3.58;;;1.00;;
13457;SDS011;6801;53.018;11.560;2023-03-23T09:45:53;2.60;;;0.75;;
13457;SDS011;6801;53.018;11.560;2023-03-23T09:48:29;2.88;;;1.00;;
13457;SDS011;6801;53.018;11.560;2023-03-23T09:51:07;2.78;;;0.85;;
13457;SDS011;6801;53.018;11.560;2023-03-23T09:53:41;2.72;;;0.70;;
13457;SDS011;6801;53.018;11.560;2023-03-23T09:58:42;0.60;;;0.30;;
13457;SDS011;6801;53.018;11.560;2023-03-23T10:01:14;4.55;;;0.80;;
13457;SDS011;6801;53.018;11.560;2023-03-23T10:03:46;4.22;;;0.98;;
13457;SDS011;6801;53.018;11.560;2023-03-23T10:06:14;2.95;;;0.75;;
13457;SDS011;6801;53.018;11.560;2023-03-23T10:08:44;2.78;;;0.82;;
13457;SDS011;6801;53.018;11.560;2023-03-23T10:11:23;2.03;;;0.75;;
13457;SDS011;6801;53.018;11.560;2023-03-23T10:14:02;6.43;;;1.50;;
13457;SDS011;6801;53.018;11.560;2023-03-23T10:16:42;3.75;;;1.08;;
13457;SDS011;6801;53.018;11.560;2023-03-23T10:19:20;2.60;;;0.90;;
13457;SDS011;6801;53.018;11.560;2023-03-23T10:21:55;3.45;;;0.70;;
13457;SDS011;6801;53.018;11.560;2023-03-23T10:24:30;3.72;;;0.93;;
13457;SDS011;6801;53.018;11.560;2023-03-23T10:27:03;2.47;;;0.75;;
13457;SDS011;6801;53.018;11.560;2023-03-23T10:29:49;6.07;;;0.82;;
13457;SDS011;6801;53.018;11.560;2023-03-23T10:32:21;0.90;;;0.50;;
13457;SDS011;6801;53.018;11.560;2023-03-23T10:35:03;4.22;;;1.42;;
13457;SDS011;6801;53.018;11.560;2023-03-23T10:37:36;1.50;;;0.63;;
13457;SDS011;6801;53.018;11.560;2023-03-23T10:40:05;5.50;;;1.20;;
13457;SDS011;6801;53.018;11.560;2023-03-23T10:42:40;7.40;;;1.20;;
13457;SDS011;6801;53.018;11.560;2023-03-23T10:45:13;1.98;;;0.85;;
13457;SDS011;6801;53.018;11.560;2023-03-23T10:47:45;2.53;;;0.45;;
13457;SDS011;6801;53.018;11.560;2023-03-23T10:50:16;3.22;;;1.05;;
13457;SDS011;6801;53.018;11.560;2023-03-23T10:52:47;2.20;;;0.70;;
13457;SDS011;6801;53.018;11.560;2023-03-23T10:55:19;2.53;;;0.85;;
13457;SDS011;6801;53.018;11.560;2023-03-23T10:57:58;5.55;;;1.15;;
13457;SDS011;6801;53.018;11.560;2023-03-23T11:00:29;4.53;;;2.45;;
13457;SDS011;6801;53.018;11.560;2023-03-23T11:02:58;3.08;;;0.90;;
13457;SDS011;6801;53.018;11.560;2023-03-23T11:05:33;2.80;;;0.60;;
13457;SDS011;6801;53.018;11.560;2023-03-23T11:08:02;3.42;;;0.70;;
13457;SDS011;6801;53.018;11.560;2023-03-23T11:10:36;3.30;;;0.50;;
13457;SDS011;6801;53.018;11.560;2023-03-23T11:13:09;4.20;;;0.50;;
13457;SDS011;6801;53.018;11.560;2023-03-23T11:15:42;3.72;;;0.70;;
13457;SDS011;6801;53.018;11.560;2023-03-23T11:18:11;5.00;;;0.52;;
13457;SDS011;6801;53.018;11.560;2023-03-23T11:20:40;4.22;;;0.70;;
13457;SDS011;6801;53.018;11.560;2023-03-23T11:23:10;3.47;;;0.70;;
13457;SDS011;6801;53.018;11.560;2023-03-23T11:25:53;5.20;;;1.00;;
13457;SDS011;6801;53.018;11.560;2023-03-23T11:28:25;2.78;;;0.52;;
13457;SDS011;6801;53.018;11.560;2023-03-23T11:30:56;2.95;;;0.57;;
13457;SDS011;6801;53.018;11.560;2023-03-23T11:33:28;6.60;;;0.90;;
13457;SDS011;6801;53.018;11.560;2023-03-23T11:35:56;6.35;;;1.10;;
13457;SDS011;6801;53.018;11.560;2023-03-23T11:38:23;5.55;;;0.75;;
13457;SDS011;6801;53.018;11.560;2023-03-23T11:40:53;4.13;;;1.15;;
13457;SDS011;6801;53.018;11.560;2023-03-23T11:43:21;5.10;;;1.40;;
13457;SDS011;6801;53.018;11.560;2023-03-23T11:45:52;1.10;;;0.60;;
13457;SDS011;6801;53.018;11.560;2023-03-23T11:48:28;6.80;;;0.70;;
13457;SDS011;6801;53.018;11.560;2023-03-23T11:51:01;3.55;;;0.30;;
13457;SDS011;6801;53.018;11.560;2023-03-23T11:53:36;1.58;;;0.43;;
13457;SDS011;6801;53.018;11.560;2023-03-23T11:56:12;4.60;;;0.75;;
13457;SDS011;6801;53.018;11.560;2023-03-23T11:58:43;3.05;;;0.60;;
13457;SDS011;6801;53.018;11.560;2023-03-23T12:01:14;4.45;;;0.75;;
13457;SDS011;6801;53.018;11.560;2023-03-23T12:06:49;2.90;;;0.70;;
13457;SDS011;6801;53.018;11.560;2023-03-23T12:09:28;2.60;;;0.47;;
13457;SDS011;6801;53.018;11.560;2023-03-23T12:12:07;2.75;;;0.65;;
13457;SDS011;6801;53.018;11.560;2023-03-23T12:14:43;4.10;;;0.80;;
13457;SDS011;6801;53.018;11.560;2023-03-23T12:17:27;4.50;;;0.80;;
13457;SDS011;6801;53.018;11.560;2023-03-23T12:20:04;2.00;;;0.43;;
13457;SDS011;6801;53.018;11.560;2023-03-23T12:22:45;3.20;;;0.52;;
13457;SDS011;6801;53.018;11.560;2023-03-23T12:25:32;3.42;;;0.90;;
13457;SDS011;6801;53.018;11.560;2023-03-23T12:28:18;3.67;;;0.93;;
13457;SDS011;6801;53.018;11.560;2023-03-23T12:30:53;2.15;;;0.88;;
13457;SDS011;6801;53.018;11.560;2023-03-23T12:33:29;1.33;;;0.40;;
13457;SDS011;6801;53.018;11.560;2023-03-23T12:36:13;2.08;;;0.63;;
13457;SDS011;6801;53.018;11.560;2023-03-23T12:38:52;1.77;;;0.60;;
13457;SDS011;6801;53.018;11.560;2023-03-23T12:41:29;1.43;;;0.70;;
13457;SDS011;6801;53.018;11.560;2023-03-23T12:44:03;3.72;;;0.80;;
13457;SDS011;6801;53.018;11.560;2023-03-23T12:46:48;3.95;;;0.80;;
13457;SDS011;6801;53.018;11.560;2023-03-23T12:49:31;3.65;;;0.63;;
13457;SDS011;6801;53.018;11.560;2023-03-23T12:52:03;4.15;;;0.80;;
13457;SDS011;6801;53.018;11.560;2023-03-23T12:54:38;5.45;;;0.90;;
13457;SDS011;6801;53.018;11.560;2023-03-23T12:57:11;2.20;;;0.55;;
13457;SDS011;6801;53.018;11.560;2023-03-23T12:59:43;3.28;;;0.80;;
13457;SDS011;6801;53.018;11.560;2023-03-23T13:02:18;3.85;;;0.57;;
13457;SDS011;6801;53.018;11.560;2023-03-23T13:04:50;4.10;;;0.80;;
13457;SDS011;6801;53.018;11.560;2023-03-23T13:07:22;2.78;;;0.68;;
13457;SDS011;6801;53.018;11.560;2023-03-23T13:09:53;4.25;;;0.95;;
13457;SDS011;6801;53.018;11.560;2023-03-23T13:12:24;3.25;;;1.23;;
13457;SDS011;6801;53.018;11.560;2023-03-23T13:14:59;3.03;;;0.47;;
13457;SDS011;6801;53.018;11.560;2023-03-23T13:17:37;5.38;;;0.90;;
13457;SDS011;6801;53.018;11.560;2023-03-23T13:20:27;3.67;;;0.60;;
13457;SDS011;6801;53.018;11.560;2023-03-23T13:23:08;2.63;;;0.50;;
13457;SDS011;6801;53.018;11.560;2023-03-23T13:25:46;1.85;;;0.60;;
13457;SDS011;6801;53.018;11.560;2023-03-23T13:28:17;3.85;;;1.15;;
13457;SDS011;6801;53.018;11.560;2023-03-23T13:30:57;3.58;;;0.88;;
13457;SDS011;6801;53.018;11.560;2023-03-23T13:33:29;3.13;;;1.55;;
13457;SDS011;6801;53.018;11.560;2023-03-23T13:38:52;5.05;;;1.90;;
13457;SDS011;6801;53.018;11.560;2023-03-23T13:41:20;2.92;;;1.38;;
13457;SDS011;6801;53.018;11.560;2023-03-23T13:43:47;5.63;;;2.03;;
13457;SDS011;6801;53.018;11.560;2023-03-23T13:46:25;5.40;;;3.05;;
13457;SDS011;6801;53.018;11.560;2023-03-23T13:51:57;3.08;;;1.50;;
13457;SDS011;6801;53.018;11.560;2023-03-23T13:54:30;5.57;;;2.33;;
13457;SDS011;6801;53.018;11.560;2023-03-23T13:56:59;3.95;;;1.40;;
13457;SDS011;6801;53.018;11.560;2023-03-23T13:59:32;2.73;;;1.10;;
13457;SDS011;6801;53.018;11.560;2023-03-23T14:04:57;3.80;;;1.38;;
13457;SDS011;6801;53.018;11.560;2023-03-23T14:07:53;4.03;;;1.83;;
13457;SDS011;6801;53.018;11.560;2023-03-23T14:10:24;3.75;;;1.35;;
13457;SDS011;6801;53.018;11.560;2023-03-23T14:12:57;5.63;;;2.30;;
13457;SDS011;6801;53.018;11.560;2023-03-23T14:15:27;10.82;;;3.20;;
13457;SDS011;6801;53.018;11.560;2023-03-23T14:17:55;8.38;;;1.80;;
13457;SDS011;6801;53.018;11.560;2023-03-23T14:20:24;5.35;;;1.63;;
13457;SDS011;6801;53.018;11.560;2023-03-23T14:22:55;4.72;;;1.42;;
13457;SDS011;6801;53.018;11.560;2023-03-23T14:25:22;6.93;;;2.58;;
13457;SDS011;6801;53.018;11.560;2023-03-23T14:27:52;7.18;;;2.70;;
13457;SDS011;6801;53.018;11.560;2023-03-23T14:30:20;4.05;;;1.00;;
13457;SDS011;6801;53.018;11.560;2023-03-23T14:32:50;0.82;;;0.50;;
13457;SDS011;6801;53.018;11.560;2023-03-23T14:35:19;2.13;;;0.98;;
13457;SDS011;6801;53.018;11.560;2023-03-23T14:37:51;3.50;;;0.73;;
13457;SDS011;6801;53.018;11.560;2023-03-23T14:40:20;1.27;;;0.70;;
13457;SDS011;6801;53.018;11.560;2023-03-23T14:42:47;2.53;;;0.70;;
13457;SDS011;6801;53.018;11.560;2023-03-23T14:45:19;2.03;;;0.73;;
13457;SDS011;6801;53.018;11.560;2023-03-23T14:47:48;4.68;;;0.88;;
13457;SDS011;6801;53.018;11.560;2023-03-23T14:50:28;2.28;;;0.77;;
13457;SDS011;6801;53.018;11.560;2023-03-23T14:52:57;3.13;;;0.70;;
13457;SDS011;6801;53.018;11.560;2023-03-23T14:55:30;2.17;;;0.60;;
13457;SDS011;6801;53.018;11.560;2023-03-23T14:58:05;4.50;;;0.70;;
13457;SDS011;6801;53.018;11.560;2023-03-23T15:00:34;2.22;;;0.73;;
13457;SDS011;6801;53.018;11.560;2023-03-23T15:03:03;4.72;;;0.75;;
13457;SDS011;6801;53.018;11.560;2023-03-23T15:05:34;3.22;;;0.82;;
13457;SDS011;6801;53.018;11.560;2023-03-23T15:08:05;2.92;;;0.70;;
13457;SDS011;6801;53.018;11.560;2023-03-23T15:10:35;3.75;;;0.73;;
13457;SDS011;6801;53.018;11.560;2023-03-23T15:13:02;1.88;;;0.70;;
13457;SDS011;6801;53.018;11.560;2023-03-23T15:15:30;3.08;;;0.73;;
13457;SDS011;6801;53.018;11.560;2023-03-23T15:17:59;1.88;;;0.50;;
13457;SDS011;6801;53.018;11.560;2023-03-23T15:20:28;1.23;;;0.60;;
13457;SDS011;6801;53.018;11.560;2023-03-23T15:22:56;1.65;;;0.57;;
13457;SDS011;6801;53.018;11.560;2023-03-23T15:25:31;2.25;;;0.50;;
13457;SDS011;6801;53.018;11.560;2023-03-23T15:28:14;2.30;;;0.47;;
13457;SDS011;6801;53.018;11.560;2023-03-23T15:30:46;1.13;;;0.40;;
13457;SDS011;6801;53.018;11.560;2023-03-23T15:33:14;4.32;;;0.70;;
13457;SDS011;6801;53.018;11.560;2023-03-23T15:35:44;1.67;;;0.35;;
13457;SDS011;6801;53.018;11.560;2023-03-23T15:38:15;1.45;;;0.40;;
13457;SDS011;6801;53.018;11.560;2023-03-23T15:40:48;2.25;;;0.40;;
13457;SDS011;6801;53.018;11.560;2023-03-23T15:43:17;1.05;;;0.32;;
13457;SDS011;6801;53.018;11.560;2023-03-23T15:45:56;1.55;;;0.35;;